Nerchinsk, Russia
Current Conditions -  °F | °C
As of 7:00 PM on Sunday 21 Dec 2014 (Local Time) from UIAA Reporting Station
Broken Clouds Broken Clouds  
Wind Chill: 18°   Ceiling: 10000
Heat Index: 28°   Visibility: 6mi
Dew Point: 18°   Wind: 13mph
Humidity: 64%   Direction: 200°SSW
Pressure: 29.8"   Gusts: NA
Location:  52°N, 116.55°E
Report Text: UIAA 211000Z 20006MPS 9999 SCT050CB BKN100 M02/M08 Q1009 NOSIGRMK QFE698 29350060
Loading
Personal Weather Stations






























Interactive Weather Map New forecast layout! Learn more

10-Day Weather Forecast

Advertisements
Track Severe Weather on mobile